Terminal Aerodrome Forecast
Issued by NWS

Home | Current Version | Previous Version | Text Only | Print | Product List | Glossary On
Versions: 1 2 3 4 5 6 7 8 9 10 11 12 13 14 15
000
FTUS42 KMLB 182200 AAA
TAFISM
TAF AMD
KISM 182210Z 1822/1918 09009KT P6SM VCTS SCT060CB BKN250
      TEMPO 1822/1824 5SM TSRA SCT040CB BKN060 OVC250
     FM190100 VRB03KT P6SM FEW030 BKN250
     FM191400 05009KT P6SM SCT025 SCT150 OVC250=

USA.gov is the U.S. government's official web portal to all federal, state and local government web resources and services.